createdAt,value
2023-04-05T00:07:48.219Z,4.68
2023-04-05T00:10:15.306Z,4.95
2023-04-05T00:12:42.413Z,5.35
2023-04-05T00:15:09.487Z,4.43
2023-04-05T00:17:36.606Z,5.00
2023-04-05T00:20:06.915Z,4.40
2023-04-05T00:22:36.100Z,4.72
2023-04-05T00:25:03.958Z,5.85
2023-04-05T00:27:31.302Z,5.20
2023-04-05T00:29:58.502Z,5.20
2023-04-05T00:32:25.638Z,5.75
2023-04-05T00:37:28.741Z,5.00
2023-04-05T00:39:57.573Z,5.88
2023-04-05T00:45:17.992Z,5.50
2023-04-05T00:47:45.661Z,5.85
2023-04-05T00:50:13.725Z,5.50
2023-04-05T00:55:23.007Z,5.25
2023-04-05T00:57:50.365Z,5.45
2023-04-05T01:00:17.698Z,5.68
2023-04-05T01:02:46.967Z,5.40
2023-04-05T01:13:56.858Z,5.97
2023-04-05T01:16:23.953Z,5.95
2023-04-05T01:18:56.525Z,6.43
2023-04-05T01:21:26.482Z,4.70
2023-04-05T01:23:58.581Z,6.13
2023-04-05T01:26:25.631Z,4.78
2023-04-05T01:28:52.722Z,6.83
2023-04-05T01:31:26.081Z,5.82
2023-04-05T01:34:03.355Z,5.38
2023-04-05T01:36:37.580Z,5.90
2023-04-05T01:39:06.491Z,6.15
2023-04-05T01:41:33.827Z,5.82
2023-04-05T01:44:01.204Z,5.55
2023-04-05T01:55:11.189Z,5.07
2023-04-05T01:57:40.976Z,5.65
2023-04-05T02:00:08.554Z,6.63
2023-04-05T02:02:35.822Z,5.57
2023-04-05T02:05:02.908Z,5.40
2023-04-05T02:10:14.240Z,6.07
2023-04-05T02:12:41.429Z,5.43
2023-04-05T02:15:08.962Z,5.28
2023-04-05T02:17:39.109Z,6.22
2023-04-05T02:20:12.675Z,6.45
2023-04-05T02:22:40.059Z,4.95
2023-04-05T02:25:11.090Z,5.05
2023-04-05T02:27:38.227Z,6.68
2023-04-05T02:30:05.934Z,6.13
2023-04-05T02:32:33.214Z,5.70
2023-04-05T02:35:00.444Z,7.13
2023-04-05T02:37:35.790Z,7.80
2023-04-05T02:40:05.670Z,5.68
2023-04-05T02:42:32.781Z,6.85
2023-04-05T02:44:59.999Z,6.22
2023-04-05T02:47:27.434Z,5.97
2023-04-05T02:49:54.805Z,8.23
2023-04-05T02:52:31.757Z,6.90
2023-04-05T02:54:58.822Z,5.78
2023-04-05T02:57:26.026Z,6.15
2023-04-05T02:59:53.224Z,5.63
2023-04-05T03:02:20.976Z,6.25
2023-04-05T03:04:48.302Z,6.97
2023-04-05T03:10:01.214Z,5.85
2023-04-05T03:12:28.374Z,5.95
2023-04-05T03:14:55.760Z,6.63
2023-04-05T03:17:23.505Z,6.28
2023-04-05T03:19:50.664Z,6.22
2023-04-05T03:33:09.807Z,6.75
2023-04-05T03:35:37.248Z,6.60
2023-04-05T03:40:55.660Z,6.50
2023-04-05T03:43:22.804Z,5.38
2023-04-05T03:45:50.734Z,5.72
2023-04-05T03:48:20.476Z,7.38
2023-04-05T03:50:48.331Z,5.68
2023-04-05T03:53:19.248Z,6.47
2023-04-05T03:55:53.366Z,5.82
2023-04-05T03:58:20.756Z,9.15
2023-04-05T04:00:48.922Z,6.47
2023-04-05T04:03:17.130Z,5.72
2023-04-05T04:05:44.695Z,6.30
2023-04-05T04:08:13.696Z,6.20
2023-04-05T04:10:41.184Z,6.75
2023-04-05T04:13:16.982Z,5.18
2023-04-05T04:15:44.201Z,6.93
2023-04-05T04:18:12.144Z,6.13
2023-04-05T04:20:39.479Z,6.55
2023-04-05T04:23:10.020Z,6.00
2023-04-05T04:25:37.717Z,6.82
2023-04-05T04:30:38.868Z,7.18
2023-04-05T04:33:09.324Z,6.63
2023-04-05T04:35:39.577Z,7.50
2023-04-05T04:40:53.963Z,8.13
2023-04-05T04:51:38.066Z,7.00
2023-04-05T04:54:05.242Z,7.43
2023-04-05T04:56:32.447Z,8.63
2023-04-05T04:58:59.598Z,7.85
2023-04-05T05:12:31.488Z,7.53
2023-04-05T05:14:58.868Z,7.32
2023-04-05T05:17:29.785Z,8.07
2023-04-05T05:19:57.120Z,8.07
2023-04-05T05:22:27.543Z,7.93
2023-04-05T05:49:10.670Z,7.57
2023-04-05T05:54:24.830Z,7.88
2023-04-05T05:56:53.213Z,8.73
2023-04-05T05:59:20.639Z,8.20
2023-04-05T06:04:29.401Z,8.43
2023-04-05T06:07:05.503Z,8.77
2023-04-05T06:15:21.676Z,9.45
2023-04-05T06:17:50.552Z,9.38
2023-04-05T06:20:18.415Z,9.05
2023-04-05T06:22:45.680Z,7.93
2023-04-05T06:27:54.116Z,9.07
2023-04-05T06:30:22.377Z,8.02
2023-04-05T06:32:55.046Z,8.35
2023-04-05T06:35:28.495Z,8.10
2023-04-05T06:37:55.787Z,7.50
2023-04-05T06:40:22.955Z,7.28
2023-04-05T06:42:50.062Z,8.73
2023-04-05T06:45:19.485Z,7.95
2023-04-05T06:47:48.584Z,7.72
2023-04-05T06:50:16.620Z,8.55
2023-04-05T06:55:21.521Z,7.68
2023-04-05T07:06:07.521Z,7.57
2023-04-05T07:08:34.737Z,6.65
2023-04-05T07:13:43.370Z,6.72
2023-04-05T07:16:10.697Z,6.35
2023-04-05T07:21:13.818Z,7.20
2023-04-05T07:23:41.345Z,7.40
2023-04-05T07:39:41.063Z,6.72
2023-04-05T07:42:14.644Z,6.47
2023-04-05T07:44:41.950Z,6.28
2023-04-05T07:55:22.769Z,6.13
2023-04-05T07:57:56.753Z,4.90
2023-04-05T08:06:01.545Z,6.40
2023-04-05T08:11:10.060Z,4.95
2023-04-05T08:13:40.430Z,5.68
2023-04-05T08:16:08.382Z,4.68
2023-04-05T08:18:35.841Z,4.88
2023-04-05T08:26:42.703Z,4.30
2023-04-05T08:43:00.272Z,4.50
2023-04-05T08:45:27.586Z,4.55
2023-04-05T08:47:54.960Z,5.00
2023-04-05T08:50:22.769Z,4.50
2023-04-05T08:52:52.986Z,4.47
2023-04-05T08:55:20.201Z,4.22
2023-04-05T08:57:53.798Z,3.55
2023-04-05T09:00:21.668Z,4.18
2023-04-05T09:02:57.221Z,4.65
2023-04-05T09:19:05.904Z,3.97
2023-04-05T09:24:54.005Z,4.60
2023-04-05T10:06:04.701Z,4.47
2023-04-05T10:08:39.398Z,6.38
2023-04-05T10:58:03.405Z,3.60
2023-04-05T11:17:14.729Z,4.35
2023-04-05T11:22:28.881Z,3.85
2023-04-05T11:27:50.375Z,3.40
2023-04-05T11:30:37.825Z,4.38
2023-04-05T12:00:43.530Z,3.28
2023-04-05T12:11:28.399Z,3.85
2023-04-05T12:13:59.187Z,3.53
2023-04-05T12:16:36.421Z,4.18
2023-04-05T12:21:49.597Z,3.47
2023-04-05T12:26:54.181Z,3.95
2023-04-05T12:37:33.543Z,3.95
2023-04-05T12:40:03.318Z,3.78
2023-04-05T12:42:38.647Z,3.67
2023-04-05T12:45:06.799Z,3.70
2023-04-05T12:47:39.067Z,3.95
2023-04-05T12:50:16.070Z,3.05
2023-04-05T12:52:55.820Z,4.07
2023-04-05T12:55:23.873Z,4.13
2023-04-05T13:25:21.978Z,4.30
2023-04-05T16:22:16.635Z,5.97
2023-04-05T17:54:26.470Z,6.88
2023-04-05T17:57:20.883Z,6.82
2023-04-05T19:36:08.586Z,9.23
2023-04-05T19:53:20.910Z,8.15
2023-04-05T21:32:32.632Z,8.88
2023-04-05T21:48:44.565Z,10.73
2023-04-05T21:53:48.852Z,10.50
2023-04-05T21:56:16.547Z,10.25
2023-04-05T21:58:52.830Z,10.75
2023-04-05T22:31:49.301Z,11.25
2023-04-05T22:34:21.767Z,11.88
2023-04-05T22:39:34.844Z,11.57
2023-04-05T22:53:04.178Z,11.23
2023-04-05T23:06:32.858Z,11.23
2023-04-05T23:20:10.485Z,11.82
2023-04-05T23:33:54.029Z,11.02
